Address 0x86ea8968b34091cd9f229d73508de99d1bc3e643

 
 
Txn Hash Method
Block
From
To
Value [Txn Fee]
0x99b8a0ac6a7d8970f0aeed47ed1975fb4fbb2184bd9a251bb39b8eff649745ecZap In229584412021-12-25 20:40:1924 days 1 hr ago0x86ea8968b34091cd9f229d73508de99d1bc3e643OUT Zapper.Fi: Aave Zap In0.01 MATIC0.0007473481411.50211372
0x7e85bbe85a248c5d87218d3ac2997fb847946e666f83f98abbb11d99ed9145e8Zap In229584242021-12-25 20:39:4524 days 1 hr ago0x86ea8968b34091cd9f229d73508de99d1bc3e643OUT Zapper.Fi: Quickswap Zap In0.01 MATIC0.00059156682.2
0x9f37879af82bcd9e96351d873d0e4be481850f0467aa1338c06db2c52e93993f0x415565b0229584132021-12-25 20:39:2324 days 1 hr ago0x86ea8968b34091cd9f229d73508de99d1bc3e643OUT 0x: Exchange Proxy0.01 MATIC0.0087973530
0x70e6923217448c5a7b717d7f80abdd7451c807f615ee325c93dd9598c2421025Zap In217956572021-11-25 19:44:2854 days 2 hrs ago0x86ea8968b34091cd9f229d73508de99d1bc3e643OUT Zapper.Fi: Aave Zap In0.01 MATIC0.0149269530
0x252108ee80231e709e4bfc3cc75f94a64b5cde5632be51ab38834ce5222f0230Zap In217956522021-11-25 19:44:1854 days 2 hrs ago0x86ea8968b34091cd9f229d73508de99d1bc3e643OUT Zapper.Fi: SushiSwap Zap In0.01 MATIC0.0149164830
0xf1ccd0b2652997924d18d5979e08e4ab081079db4332e249ebd5af4a9be10d8f0x415565b0217956362021-11-25 19:43:4254 days 2 hrs ago0x86ea8968b34091cd9f229d73508de99d1bc3e643OUT 0x: Exchange Proxy0.1 MATIC0.0087985830
0x27739c5f567a81910e14f57bb71acfb5f7d1c1bc760d9a0f9819897e14e966a2Zap In216434222021-11-21 19:50:3258 days 2 hrs ago0x86ea8968b34091cd9f229d73508de99d1bc3e643OUT Zapper.Fi: Aave Zap In0.01 MATIC0.0149807430
0xb2b30906eb796f736d15d7f296147556995bbbb3e8fa6cd219b928a001a572cfZap In216434122021-11-21 19:50:1258 days 2 hrs ago0x86ea8968b34091cd9f229d73508de99d1bc3e643OUT Zapper.Fi: SushiSwap Zap In0.01 MATIC0.0155500830
0xcdc1a543f78303ac20a2cb5085290e3f6bd00ab2f0cddd559f5a8bac9702fc9e0x415565b0216434082021-11-21 19:50:0458 days 2 hrs ago0x86ea8968b34091cd9f229d73508de99d1bc3e643OUT 0x: Exchange Proxy0.1 MATIC0.0093115830
0x488092183f3f14c22f891663fc259c563092c2e1e9cb9b86694e363aee2f6a33Zap In211285522021-11-08 11:59:1171 days 10 hrs ago0x86ea8968b34091cd9f229d73508de99d1bc3e643OUT Zapper.Fi: Aave Zap In0.01 MATIC0.0135682530
0x79ec857c0f84c67f410578e116aef088d549e6745bb455fe944f896ea1fd8395Zap In211285472021-11-08 11:59:0171 days 10 hrs ago0x86ea8968b34091cd9f229d73508de99d1bc3e643OUT Zapper.Fi: SushiSwap Zap In0.01 MATIC0.0150825630
0x06eae0c93b27db0181014d97f6921bad8e44569aac4d38a3d19d8438c4f225f00x415565b0211285442021-11-08 11:58:5571 days 10 hrs ago0x86ea8968b34091cd9f229d73508de99d1bc3e643OUT 0x: Exchange Proxy0.01 MATIC0.0062194830
0xadfdc22ef3d9ef5f465d55b24f9c56ff18367214959c6b8c54187f9b87739d5bZap In209323492021-11-03 10:55:5476 days 11 hrs ago0x86ea8968b34091cd9f229d73508de99d1bc3e643OUT Zapper.Fi: Aave Zap In0.01 MATIC0.0146013930
0xdf938843513e3af848dba9b4ffaf1422e411d98cb3273f34721151f5099bef54Zap In209323442021-11-03 10:55:4476 days 11 hrs ago0x86ea8968b34091cd9f229d73508de99d1bc3e643OUT Zapper.Fi: SushiSwap Zap In0.01 MATIC0.0143235630
0x9cd0758484aba0a580c5128f78cc585f65f76040d3f4185699e5662c343735820x415565b0209323332021-11-03 10:55:2276 days 11 hrs ago0x86ea8968b34091cd9f229d73508de99d1bc3e643OUT 0x: Exchange Proxy0.01 MATIC0.0067324830
0x072c316064b4a325fa8b86d5372984f015bc61261f6c0e5fdb8b6f5a0b5b246bZap In206369212021-10-26 16:05:4284 days 6 hrs ago0x86ea8968b34091cd9f229d73508de99d1bc3e643OUT Zapper.Fi: Aave Zap In0.01 MATIC0.0159029130
0xb21efacc44b3c24885b10f6eb923ffc01609d84d3f75b68c6eec484864b807ceZap In206369162021-10-26 16:05:2284 days 6 hrs ago0x86ea8968b34091cd9f229d73508de99d1bc3e643OUT Zapper.Fi: SushiSwap Zap In0.01 MATIC0.0148053330
0x0f62cf1e330de5743ecf9a9487a9f3cdc0fddacffa662d8bb41c37763b0efddd0x415565b0206368942021-10-26 16:04:3084 days 6 hrs ago0x86ea8968b34091cd9f229d73508de99d1bc3e643OUT 0x: Exchange Proxy0.01 MATIC0.0064991130
0xb3d06f44d0ae0604463f3d991c00c5b8e307c0e817b86efd15627358ecb9ccb9Zap In203519722021-10-18 16:35:3392 days 5 hrs ago0x86ea8968b34091cd9f229d73508de99d1bc3e643OUT Zapper.Fi: Aave Zap In0.01 MATIC0.0181581930
0xaea49fa1be4ecde492938e0fa9823d807e43fc2e5c9122d43758f9bb57c1d07fZap In203519442021-10-18 16:34:3792 days 5 hrs ago0x86ea8968b34091cd9f229d73508de99d1bc3e643OUT Zapper.Fi: Quickswap Zap In0.01 MATIC0.008626830
0x4199eedd30d1874303be5e646d1025499fbaff7d4fd3b37d4386abb7af106dd20x415565b0203519392021-10-18 16:34:2792 days 5 hrs ago0x86ea8968b34091cd9f229d73508de99d1bc3e643OUT 0x: Exchange Proxy0.01 MATIC0.0067825830
0x073a743b06b4fdaf7caf025c1c2c1c2474d24d8941f135703a5492b6e088d2d5Zap In201001502021-10-11 13:38:4799 days 8 hrs ago0x86ea8968b34091cd9f229d73508de99d1bc3e643OUT Zapper.Fi: Aave Zap In0.001 MATIC0.01419868231
0xd7b35c3135065533b67a376bef1dffe549c7d6ab21a7255856dacfddbb1a5d98Zap In201001422021-10-11 13:38:3199 days 8 hrs ago0x86ea8968b34091cd9f229d73508de99d1bc3e643OUT Zapper.Fi: Quickswap Zap In0.001 MATIC0.01527137531
0xcc129581809419d354d0a80cc316cd1aa1cd4d146581d4700fd72d9834d900c00x8182b61f201001332021-10-11 13:38:1399 days 8 hrs ago0x86ea8968b34091cd9f229d73508de99d1bc3e643OUT 0x: Exchange Proxy0.001 MATIC0.0070205731
0x240c63061a0e6146291e5a4b3b266a82df7211dcd2d710ad401d62bcd0878f7bZap In198342752021-10-04 13:30:01106 days 8 hrs ago0x86ea8968b34091cd9f229d73508de99d1bc3e643OUT Zapper.Fi: Aave Zap In0.001 MATIC0.0042174369
[ Download CSV Export 
Parent Txn Hash Block From To Value
Loading

Contract Name:
0 MATIC

Compiler Version
0

Optimization Enabled:
0 MATIC

Other Settings:
-NA-
Block Transaction Gas Used Reward
Age Block Fee Address BC Fee Address Voting Power Jailed Incoming
Block Uncle Number Difficulty Gas Used Reward
Loading
Loading
Make sure to use the "Vote Down" button for any spammy posts, and the "Vote Up" for interesting conversations.